Погода Большие Князиковцына неделю

Гродненская область, Белоруссия

18 - 24 июля
  • 18июля
    Сегодня
    +14°
    +26°
    Небольшая облачность
    ВремяПогодаТемператураВлажностьДавлениеВетер, м/сВероятность осадков
    00:00Облачно с прояснениями+23°C72 %751 мм0.7 м/с3 %
    03:00Облачно с прояснениями+20°C86 %751 мм0.8 м/с7 %
    06:00Пасмурно, сплошная облачность+19°C79 %751 мм0.9 м/с24 %
    09:00Облачно с прояснениями, ливень+21°C84 %752 мм2.0 м/с71 %
    12:00Практически безоблачно+24°C65 %752 мм2.3 м/с35 %
    15:00Небольшая облачность+25°C57 %751 мм3.0 м/с50 %
    18:00Ясно и безоблачно+25°C55 %751 мм2.4 м/с41 %
    21:00Ясно и безоблачно+23°C63 %752 мм1.4 м/с4 %
  • 19июля
    Пятница
    +13°
    +25°
    Ясно и безоблачно
    ВремяПогодаТемператураВлажностьДавлениеВетер, м/сВероятность осадков
    00:00Облачно с прояснениями+18°C73 %752 мм1.1 м/с2 %
    03:00Ясно и безоблачно+16°C80 %752 мм1.2 м/с2 %
    06:00Ясно и безоблачно+15°C90 %752 мм1.5 м/с2 %
    09:00Облачно с прояснениями+18°C74 %752 мм2.4 м/с2 %
    12:00Ясно и безоблачно+22°C57 %752 мм2.5 м/с2 %
    15:00Ясно и безоблачно+24°C50 %751 мм2.9 м/с3 %
    18:00Ясно и безоблачно+25°C45 %750 мм3.1 м/с2 %
    21:00Ясно и безоблачно+22°C55 %750 мм1.6 м/с2 %
  • 20июля
    Суббота
    +15°
    +25°
    Облачно с прояснениями
    ВремяПогодаТемператураВлажностьДавлениеВетер, м/сВероятность осадков
    00:00Ясно и безоблачно+17°C68 %750 мм1.3 м/с2 %
    03:00Ясно и безоблачно+15°C80 %749 мм0.8 м/с2 %
    06:00Ясно и безоблачно+14°C89 %749 мм0.9 м/с1 %
    09:00Ясно и безоблачно+18°C77 %749 мм1.9 м/с2 %
    12:00Небольшая облачность+21°C61 %748 мм1.9 м/с2 %
    15:00Облачно с прояснениями+24°C55 %748 мм2.1 м/с3 %
    18:00Облачно с прояснениями+25°C50 %747 мм1.9 м/с4 %
    21:00Ясно и безоблачно+22°C71 %746 мм0.7 м/с2 %
  • 21июля
    Воскресенье
    +15°
    +27°
    Небольшая облачность
    ВремяПогодаТемператураВлажностьДавлениеВетер, м/сВероятность осадков
    00:00Ясно и безоблачно+18°C77 %746 мм0.4 м/с2 %
    03:00Ясно и безоблачно+16°C86 %746 мм0.3 м/с2 %
    06:00Ясно и безоблачно+16°C87 %745 мм0.3 м/с2 %
    09:00Ясно и безоблачно+21°C67 %745 мм1.1 м/с2 %
    12:00Ясно и безоблачно+24°C48 %745 мм1.7 м/с19 %
    15:00Небольшая облачность+26°C42 %745 мм2.0 м/с32 %
    18:00Практически безоблачно+27°C40 %744 мм1.4 м/с15 %
    21:00Практически безоблачно+23°C61 %744 мм0.6 м/с3 %
  • 22июля
    Понедельник
    +16°
    +29°
    Ясно и безоблачно
    ВремяПогодаТемператураВлажностьДавлениеВетер, м/сВероятность осадков
    00:00Практически безоблачно+19°C74 %744 мм0.4 м/с2 %
    03:00Ясно и безоблачно+18°C84 %744 мм0.4 м/с2 %
    06:00Облачно с прояснениями+16°C89 %744 мм0.3 м/с2 %
    09:00Ясно и безоблачно+21°C67 %745 мм1.2 м/с2 %
    12:00Практически безоблачно+26°C45 %745 мм1.3 м/с12 %
    15:00Ясно и безоблачно+28°C40 %744 мм1.6 м/с17 %
    18:00Ясно и безоблачно+28°C40 %744 мм1.6 м/с10 %
    21:00Ясно и безоблачно+25°C60 %744 мм0.7 м/с12 %
Мы используем cookies
Соглашаюсь